Time;durP1;ratioP1;P1;durP2;ratioP2;P2;SDS_P1;SDS_P2;PMS_P1;PMS_P2;Temp;Humidity;BMP_temperature;BMP_pressure;BME280_temperature;BME280_humidity;BME280_pressure;Samples;Min_cycle;Max_cycle;Signal;HPM_P1;HPM_P2
2023/07/01 07:28:38;;;;;;;2.60;1.90;;;24.70;73.80;;;;;;6040572;23;20425;31
2023/07/01 07:31:06;;;;;;;8.83;2.17;;;24.70;73.80;;;;;;4914284;29;20571;-85
2023/07/01 07:33:33;;;;;;;3.53;1.87;;;24.70;73.80;;;;;;4920370;29;20539;-88
2023/07/01 07:36:00;;;;;;;3.00;1.80;;;24.70;74.40;;;;;;4920967;29;20485;-89
2023/07/01 07:38:26;;;;;;;2.10;1.63;;;24.70;74.20;;;;;;4923886;29;20588;-90
2023/07/01 07:40:53;;;;;;;5.80;1.97;;;24.70;74.30;;;;;;4902152;29;20469;-91
2023/07/01 07:43:20;;;;;;;2.10;1.90;;;24.70;74.20;;;;;;4900123;29;20454;-89
2023/07/01 07:45:47;;;;;;;5.37;2.10;;;24.80;74.30;;;;;;4900996;29;20458;-86
2023/07/01 07:48:15;;;;;;;3.20;1.80;;;24.70;74.20;;;;;;4899597;29;20447;-88
2023/07/01 07:50:42;;;;;;;3.83;2.03;;;24.80;74.30;;;;;;4899834;29;20868;-87
2023/07/01 07:53:08;;;;;;;2.87;1.80;;;24.80;74.20;;;;;;4900427;29;20449;-93
2023/07/01 07:55:35;;;;;;;2.20;1.73;;;24.80;74.20;;;;;;4899893;29;20456;-92
2023/07/01 07:58:02;;;;;;;4.57;1.90;;;24.80;74.30;;;;;;4900066;29;20494;-92
2023/07/01 08:00:29;;;;;;;1.53;1.43;;;24.80;74.20;;;;;;4903477;29;20449;-87
2023/07/01 08:03:49;;;;;;;4.47;1.60;;;24.80;74.20;;;;;;4918819;29;20531;-86
2023/07/01 08:06:18;;;;;;;1.53;1.43;;;24.80;74.30;;;;;;4919957;29;20443;-87
2023/07/01 08:08:45;;;;;;;4.17;1.70;;;24.80;74.40;;;;;;4919412;29;20452;-90
2023/07/01 08:11:15;;;;;;;2.00;1.57;;;24.80;74.50;;;;;;4919763;29;20900;-96
2023/07/01 08:13:42;;;;;;;3.10;1.50;;;24.80;74.30;;;;;;4919422;29;20804;-89
2023/07/01 08:16:09;;;;;;;6.93;1.90;;;24.80;74.90;;;;;;4918363;29;20449;-92
2023/07/01 08:18:36;;;;;;;3.20;1.80;;;24.80;75.50;;;;;;4918643;29;20525;-96
2023/07/01 08:21:03;;;;;;;2.53;2.00;;;24.80;75.40;;;;;;4918471;29;20782;-95
2023/07/01 08:23:32;;;;;;;2.67;1.50;;;24.80;75.40;;;;;;4918469;29;20562;-89
2023/07/01 08:25:58;;;;;;;1.53;1.37;;;24.80;75.50;;;;;;4918648;29;20450;-89
2023/07/01 08:28:31;;;;;;;2.83;2.00;;;24.80;75.40;;;;;;4917899;29;20555;-93
2023/07/01 08:30:58;;;;;;;2.00;1.80;;;24.80;75.50;;;;;;4918309;29;20481;-90
2023/07/01 08:35:56;;;;;;;1.80;1.70;;;24.70;75.40;;;;;;4940371;23;20519;-96
2023/07/01 08:38:28;;;;;;;3.87;1.73;;;24.70;75.60;;;;;;4943283;29;20500;-95
2023/07/01 08:41:23;;;;;;;2.63;2.00;;;24.70;76.60;;;;;;4951860;23;20510;-95
2023/07/01 08:43:57;;;;;;;1.50;1.40;;;24.70;75.70;;;;;;4925424;29;20451;-93
2023/07/01 08:46:25;;;;;;;3.33;1.70;;;24.70;75.90;;;;;;4951221;23;20486;-96
2023/07/01 08:48:54;;;;;;;3.33;1.80;;;24.70;76.90;;;;;;4946110;29;20476;-92
2023/07/01 08:51:25;;;;;;;4.60;2.20;;;24.70;76.20;;;;;;4944328;29;20859;-92
2023/07/01 08:54:02;;;;;;;2.53;1.50;;;24.70;76.20;;;;;;4947812;29;20531;-93
2023/07/01 08:56:41;;;;;;;2.03;1.83;;;24.80;76.50;;;;;;4941987;29;20514;-95
2023/07/01 08:59:59;;;;;;;6.03;2.00;;;24.70;76.40;;;;;;4940458;29;20467;-95
2023/07/01 09:02:26;;;;;;;2.63;2.13;;;24.70;76.50;;;;;;4937134;29;20935;-94
2023/07/01 09:04:53;;;;;;;2.67;1.73;;;24.70;76.80;;;;;;4936940;29;20445;-94
2023/07/01 09:07:20;;;;;;;3.50;2.10;;;24.70;77.00;;;;;;4937054;29;20524;-94
2023/07/01 09:09:47;;;;;;;2.40;1.70;;;24.70;77.00;;;;;;4936485;29;20449;-89
2023/07/01 09:12:15;;;;;;;2.63;1.93;;;24.70;76.80;;;;;;4938046;29;20474;-95
2023/07/01 09:15:05;;;;;;;2.20;1.97;;;24.70;77.20;;;;;;4937782;29;20861;-96
2023/07/01 09:17:33;;;;;;;2.03;1.43;;;24.70;77.50;;;;;;4914696;29;20556;-93
2023/07/01 09:20:01;;;;;;;3.10;1.77;;;24.70;77.50;;;;;;4918871;29;20470;-95
2023/07/01 09:22:29;;;;;;;2.03;1.80;;;24.80;77.80;;;;;;4919572;29;20459;-92
2023/07/01 09:24:56;;;;;;;2.70;1.90;;;24.70;78.00;;;;;;4918999;29;20995;-94
2023/07/01 09:54:56;;;;;;;2.17;1.63;;;24.70;79.30;;;;;;4953142;23;20784;-96
2023/07/01 09:57:27;;;;;;;1.80;1.70;;;24.70;79.60;;;;;;4942333;29;20479;-91
2023/07/01 09:59:56;;;;;;;2.10;1.47;;;24.70;79.70;;;;;;4943341;29;20486;-95
2023/07/01 10:02:44;;;;;;;1.70;1.60;;;24.70;80.40;;;;;;4957409;23;20945;-93
2023/07/01 10:05:12;;;;;;;1.87;1.70;;;24.70;81.10;;;;;;4920151;29;20890;-90
2023/07/01 10:07:43;;;;;;;2.20;1.67;;;24.70;81.50;;;;;;4926565;29;20538;-96
2023/07/01 10:10:16;;;;;;;2.50;1.40;;;24.70;81.80;;;;;;4920977;29;20472;-94
2023/07/01 10:12:44;;;;;;;2.00;1.80;;;24.70;82.30;;;;;;4919934;29;20459;-94
2023/07/01 10:15:14;;;;;;;2.10;1.60;;;24.70;82.80;;;;;;4922697;29;20460;-93
2023/07/01 10:17:48;;;;;;;1.83;1.70;;;24.70;83.10;;;;;;4921090;29;20485;-91
2023/07/01 10:20:31;;;;;;;2.37;2.00;;;24.70;83.00;;;;;;4920438;29;20452;-87
2023/07/01 10:22:59;;;;;;;1.60;1.37;;;24.70;83.30;;;;;;4921888;29;20547;-91
2023/07/01 10:28:06;;;;;;;1.40;1.30;;;24.60;83.00;;;;;;4958736;23;20496;-91
2023/07/01 10:31:11;;;;;;;2.47;1.33;;;24.60;83.80;;;;;;4956834;29;20443;-89
2023/07/01 10:33:55;;;;;;;1.57;1.47;;;24.60;84.50;;;;;;4937392;29;20462;-89
2023/07/01 10:36:21;;;;;;;1.30;1.20;;;24.60;84.80;;;;;;4939462;29;20437;-92
2023/07/01 10:38:48;;;;;;;3.30;1.30;;;24.60;85.40;;;;;;4938502;29;20490;-91
2023/07/01 10:41:35;;;;;;;2.03;1.43;;;24.60;85.40;;;;;;4938802;29;20547;-90
2023/07/01 10:44:26;;;;;;;1.40;1.30;;;24.60;85.50;;;;;;4953514;29;20537;-88
2023/07/01 10:47:17;;;;;;;2.10;1.63;;;24.60;85.90;;;;;;4966524;28;20480;-91
2023/07/01 10:50:07;;;;;;;1.60;1.20;;;24.70;86.10;;;;;;4965000;28;20532;-92
2023/07/01 10:52:54;;;;;;;1.43;1.33;;;24.60;86.50;;;;;;4960795;28;20953;-91
2023/07/01 10:55:39;;;;;;;1.30;1.20;;;24.50;86.30;;;;;;4959231;29;20454;-91
2023/07/01 10:58:21;;;;;;;1.50;1.37;;;24.50;86.60;;;;;;4959155;29;20829;-94
2023/07/01 11:00:48;;;;;;;2.40;1.50;;;24.60;86.80;;;;;;4959482;29;20485;-94
2023/07/01 11:06:06;;;;;;;1.80;1.50;;;24.50;86.60;;;;;;5403137;23;21059;-91
2023/07/01 11:08:34;;;;;;;2.63;1.20;;;24.60;87.10;;;;;;4939882;29;20455;-92
2023/07/01 11:11:03;;;;;;;1.73;0.90;;;24.50;85.90;;;;;;4939345;29;20563;-93
2023/07/01 11:21:20;;;;;;;1.73;1.37;;;24.70;82.20;;;;;;4865231;23;20497;-93
2023/07/01 11:23:54;;;;;;;2.37;1.40;;;24.70;81.90;;;;;;4938934;29;20946;-95
2023/07/01 11:26:22;;;;;;;2.07;1.10;;;24.70;81.80;;;;;;4939024;29;21002;-95
2023/07/01 11:28:50;;;;;;;1.00;0.90;;;24.80;81.70;;;;;;4939364;29;20447;-95
2023/07/01 11:31:18;;;;;;;1.13;1.03;;;24.70;81.50;;;;;;4939167;29;20450;-96
2023/07/01 11:33:46;;;;;;;1.80;0.90;;;24.70;81.40;;;;;;4938300;29;20473;-95
2023/07/01 11:36:15;;;;;;;1.47;1.10;;;24.70;81.20;;;;;;4938793;29;20484;-89
2023/07/01 11:39:25;;;;;;;2.30;1.10;;;24.70;81.10;;;;;;4949955;28;20490;-93
2023/07/01 11:42:30;;;;;;;1.77;1.10;;;24.80;81.00;;;;;;4949409;23;20498;-93
2023/07/01 11:54:37;;;;;;;1.10;0.87;;;24.80;80.20;;;;;;4941926;28;20444;-94
2023/07/01 11:57:46;;;;;;;1.20;1.00;;;24.90;80.20;;;;;;4955315;28;20463;-93
2023/07/01 12:07:35;;;;;;;2.33;1.03;;;24.80;80.00;;;;;;5047398;23;21120;-94
2023/07/01 12:10:27;;;;;;;1.20;0.90;;;24.80;79.80;;;;;;4958684;23;20487;-93
2023/07/01 12:13:25;;;;;;;1.30;1.10;;;24.80;79.80;;;;;;5054807;23;20500;-96
2023/07/01 12:42:45;;;;;;;1.13;0.90;;;24.80;80.30;;;;;;5255171;23;20467;-94
2023/07/01 12:48:35;;;;;;;2.13;1.20;;;24.80;79.50;;;;;;4971981;23;20512;-94
2023/07/01 13:29:51;;;;;;;1.17;1.07;;;24.90;79.50;;;;;;2035348;23;20917;-94
2023/07/01 13:36:08;;;;;;;1.30;0.93;;;24.90;79.40;;;;;;5089445;23;20300;-94
2023/07/01 13:39:43;;;;;;;1.00;0.70;;;24.90;79.40;;;;;;4913802;29;20518;-95
2023/07/01 13:42:26;;;;;;;1.17;0.93;;;24.90;79.40;;;;;;4930579;29;20492;-96
2023/07/01 13:45:00;;;;;;;1.00;0.80;;;24.90;79.50;;;;;;4926276;29;20503;-93
2023/07/01 13:50:48;;;;;;;1.27;0.90;;;25.00;79.60;;;;;;5099147;23;20498;-96
2023/07/01 13:53:15;;;;;;;1.97;1.17;;;25.00;79.80;;;;;;4942704;29;20449;-96
2023/07/01 13:55:47;;;;;;;1.10;0.80;;;25.00;79.70;;;;;;4949384;23;20577;-93
2023/07/01 13:58:22;;;;;;;2.40;1.10;;;25.00;79.70;;;;;;4944130;29;20483;-93
2023/07/01 14:00:59;;;;;;;1.20;0.87;;;25.00;79.80;;;;;;4944946;29;20454;-93
2023/07/01 14:03:50;;;;;;;1.17;0.80;;;25.00;79.80;;;;;;4944661;29;20453;-95
2023/07/01 14:46:53;;;;;;;1.50;1.00;;;25.10;81.40;;;;;;4879146;29;20481;-93
2023/07/01 15:07:41;;;;;;;1.13;0.90;;;25.20;81.80;;;;;;4907532;26;20844;-96
2023/07/01 15:10:08;;;;;;;1.20;1.00;;;25.20;81.90;;;;;;4977521;28;20948;-96
2023/07/01 15:12:36;;;;;;;1.10;0.90;;;25.20;81.80;;;;;;4980852;28;20446;-96
2023/07/01 15:15:04;;;;;;;1.40;1.10;;;25.20;81.80;;;;;;4977973;28;20982;-86
2023/07/01 15:17:31;;;;;;;2.77;0.90;;;25.20;81.80;;;;;;4976411;28;20445;-85
2023/07/01 15:19:58;;;;;;;1.27;0.90;;;25.20;81.70;;;;;;4975156;28;20494;-85
2023/07/01 15:22:24;;;;;;;2.43;1.00;;;25.20;81.60;;;;;;4977871;28;20445;-85
2023/07/01 15:24:52;;;;;;;2.70;1.20;;;25.20;81.70;;;;;;4978670;28;20442;-96
2023/07/01 15:27:19;;;;;;;2.27;1.07;;;25.20;81.40;;;;;;4978163;28;20441;-85
2023/07/01 15:29:46;;;;;;;1.30;1.20;;;25.20;81.50;;;;;;4978062;28;20540;-96
2023/07/01 15:32:13;;;;;;;1.20;1.00;;;25.20;81.50;;;;;;4976506;28;20447;-90
2023/07/01 15:34:40;;;;;;;2.47;1.20;;;25.20;81.50;;;;;;4995908;28;20463;-85
2023/07/01 15:37:06;;;;;;;3.80;0.90;;;25.20;81.50;;;;;;4994961;28;20450;-95
2023/07/01 15:39:33;;;;;;;1.20;1.00;;;25.20;81.50;;;;;;4994972;28;20496;-96
2023/07/01 15:42:01;;;;;;;1.33;1.13;;;25.20;81.40;;;;;;4996846;28;20444;-96
2023/07/01 15:44:29;;;;;;;1.10;0.90;;;25.20;82.20;;;;;;4995997;28;20469;-93
2023/07/01 15:46:56;;;;;;;1.57;1.00;;;25.20;81.30;;;;;;4997916;28;20444;-96
2023/07/01 15:49:23;;;;;;;1.20;0.90;;;25.10;81.20;;;;;;4999570;28;20447;-96
2023/07/01 15:51:50;;;;;;;1.30;1.00;;;25.20;81.40;;;;;;4998400;28;20544;-90
2023/07/01 15:54:16;;;;;;;1.20;1.03;;;25.20;81.30;;;;;;4999499;28;21088;-93
2023/07/01 15:56:44;;;;;;;1.30;0.90;;;25.20;81.10;;;;;;4995714;28;20556;-88
2023/07/01 15:59:12;;;;;;;1.10;0.93;;;25.20;81.10;;;;;;4995631;28;20512;-87
2023/07/01 16:01:41;;;;;;;1.07;0.90;;;25.20;81.90;;;;;;4983607;28;20430;-96
2023/07/01 16:04:09;;;;;;;1.70;1.00;;;25.20;81.10;;;;;;4979533;28;20453;-88
2023/07/01 16:06:36;;;;;;;1.10;1.00;;;25.20;81.10;;;;;;4993422;28;20475;-91
2023/07/01 16:09:31;;;;;;;1.10;1.00;;;25.30;81.10;;;;;;4977334;28;20471;-87
2023/07/01 16:11:59;;;;;;;3.33;1.20;;;25.20;81.10;;;;;;4988840;28;20527;-88
2023/07/01 16:14:27;;;;;;;1.57;1.00;;;25.20;81.00;;;;;;4988875;28;20940;-88
2023/07/01 16:16:56;;;;;;;1.50;1.07;;;25.20;81.00;;;;;;4981399;28;20470;-96
2023/07/01 16:19:23;;;;;;;5.03;1.10;;;25.20;81.00;;;;;;4976594;28;20842;-95
2023/07/01 16:21:51;;;;;;;2.80;1.10;;;25.20;80.90;;;;;;4987205;28;20548;-88
2023/07/01 16:24:52;;;;;;;1.53;1.20;;;25.20;81.00;;;;;;4996136;28;20483;-96
2023/07/01 16:27:21;;;;;;;1.20;1.10;;;25.20;81.10;;;;;;4997503;28;20448;-88
2023/07/01 16:29:53;;;;;;;1.40;1.23;;;25.20;81.10;;;;;;4997668;28;20436;-87
2023/07/01 16:32:21;;;;;;;1.20;1.00;;;25.20;81.20;;;;;;4996816;28;20464;-92
2023/07/01 16:34:48;;;;;;;2.33;1.20;;;25.20;81.20;;;;;;4995823;28;20458;-87
2023/07/01 16:37:15;;;;;;;1.30;1.20;;;25.20;80.90;;;;;;4995499;28;20441;-88
2023/07/01 16:39:49;;;;;;;1.63;1.00;;;25.20;81.10;;;;;;4995231;28;20484;-87
2023/07/01 16:42:17;;;;;;;2.03;1.40;;;25.20;81.20;;;;;;4998571;28;20444;-96
2023/07/01 16:44:44;;;;;;;1.80;1.20;;;25.20;81.70;;;;;;5000431;28;20440;-94
2023/07/01 16:47:13;;;;;;;3.33;1.37;;;25.20;81.70;;;;;;5003764;28;20448;-96
2023/07/01 16:49:40;;;;;;;1.60;1.10;;;25.20;81.70;;;;;;5003662;28;20451;-93
2023/07/01 16:52:28;;;;;;;1.40;1.30;;;25.20;81.90;;;;;;5005206;28;20449;-94
2023/07/01 16:54:55;;;;;;;2.47;1.50;;;25.20;82.20;;;;;;5005255;28;20462;-87
2023/07/01 16:57:24;;;;;;;2.47;1.40;;;25.10;82.20;;;;;;4998812;23;20470;-88
2023/07/01 16:59:51;;;;;;;1.20;1.00;;;25.10;81.60;;;;;;4957517;29;20486;-90
2023/07/01 17:02:54;;;;;;;2.13;1.10;;;25.10;81.30;;;;;;4955962;29;20554;-89
2023/07/01 17:05:26;;;;;;;2.20;1.50;;;25.10;81.40;;;;;;4955161;29;21011;-85
2023/07/01 17:07:54;;;;;;;1.53;1.43;;;25.10;81.50;;;;;;4955175;29;20441;-94
2023/07/01 17:10:42;;;;;;;1.20;1.10;;;25.10;81.40;;;;;;4955372;29;20873;-86
2023/07/01 17:13:29;;;;;;;1.40;1.27;;;25.10;81.50;;;;;;4955269;29;20542;-91
2023/07/01 17:15:56;;;;;;;1.43;1.30;;;25.10;81.50;;;;;;4955665;29;20452;-95
2023/07/01 17:18:24;;;;;;;1.43;1.30;;;25.10;81.50;;;;;;4955489;29;20450;-92
2023/07/01 17:20:54;;;;;;;1.63;1.53;;;25.20;81.60;;;;;;4955678;29;20486;-87
2023/07/01 17:23:22;;;;;;;2.43;1.30;;;25.10;81.40;;;;;;4955615;29;20446;-91
2023/07/01 17:25:49;;;;;;;1.87;1.30;;;25.10;81.40;;;;;;4955313;29;20460;-87
2023/07/01 17:28:15;;;;;;;1.50;1.40;;;25.10;81.40;;;;;;4955838;29;20937;-92
2023/07/01 17:30:42;;;;;;;3.00;1.27;;;25.10;81.30;;;;;;4954708;29;20454;-92
2023/07/01 17:33:10;;;;;;;1.40;1.30;;;25.10;81.40;;;;;;4957138;29;20471;-87
2023/07/01 17:35:37;;;;;;;2.43;1.30;;;25.10;81.40;;;;;;4956267;29;20453;-91
2023/07/01 17:38:06;;;;;;;1.40;1.30;;;25.10;81.00;;;;;;4954787;29;20457;-91
2023/07/01 17:40:32;;;;;;;1.50;1.17;;;25.10;81.30;;;;;;4955125;29;20490;-84
2023/07/01 17:42:59;;;;;;;2.07;1.80;;;25.20;81.60;;;;;;4954853;29;20445;-83
2023/07/01 17:45:26;;;;;;;2.00;1.70;;;25.20;81.60;;;;;;4955438;29;20448;-91
2023/07/01 17:47:53;;;;;;;2.13;1.40;;;25.10;81.80;;;;;;4955049;29;20445;-92
2023/07/01 17:50:20;;;;;;;2.40;1.50;;;25.00;81.90;;;;;;4955071;29;20449;-83
2023/07/01 17:53:33;;;;;;;4.13;1.70;;;25.00;81.70;;;;;;4937862;29;20453;-83
2023/07/01 17:56:01;;;;;;;2.07;1.80;;;25.00;81.80;;;;;;4937596;29;20502;-94
2023/07/01 17:58:28;;;;;;;1.60;1.50;;;25.00;81.60;;;;;;4935878;29;20467;-87
2023/07/01 18:00:55;;;;;;;3.23;1.33;;;25.00;81.40;;;;;;4936398;29;20497;-89
2023/07/01 18:03:22;;;;;;;1.83;1.70;;;25.00;81.20;;;;;;4939497;29;20479;-82
2023/07/01 18:05:49;;;;;;;1.50;1.20;;;25.00;81.20;;;;;;4939801;29;20475;-84
2023/07/01 18:08:16;;;;;;;1.80;1.20;;;25.00;81.30;;;;;;4939936;29;20458;-95
2023/07/01 18:10:43;;;;;;;1.57;1.30;;;25.00;81.30;;;;;;4940683;29;20464;-85
2023/07/01 18:13:11;;;;;;;1.20;1.00;;;25.10;81.30;;;;;;4939645;29;20969;-83
2023/07/01 18:15:38;;;;;;;1.20;1.10;;;25.10;81.20;;;;;;4939433;29;20551;-83
2023/07/01 18:18:04;;;;;;;1.67;1.57;;;25.10;81.10;;;;;;4939777;29;20450;-87
2023/07/01 18:20:31;;;;;;;2.53;1.70;;;25.10;81.10;;;;;;4939855;29;20490;-95
2023/07/01 18:22:58;;;;;;;1.83;1.10;;;25.10;81.00;;;;;;4939396;29;20971;-93
2023/07/01 18:25:25;;;;;;;1.73;1.43;;;25.10;81.10;;;;;;4939318;29;20448;-83
2023/07/01 18:27:51;;;;;;;3.00;1.67;;;25.10;81.10;;;;;;4939485;29;20457;-94
2023/07/01 18:30:20;;;;;;;1.43;1.33;;;25.10;81.10;;;;;;4940586;29;20510;-83
2023/07/01 18:32:47;;;;;;;1.33;1.23;;;25.00;80.90;;;;;;4958617;29;20553;-94
2023/07/01 18:35:15;;;;;;;1.80;1.50;;;25.10;81.10;;;;;;4958136;29;20930;-82
2023/07/01 18:37:45;;;;;;;1.53;1.17;;;25.10;81.00;;;;;;4958769;29;20442;-95
2023/07/01 18:40:13;;;;;;;2.60;1.30;;;25.10;81.00;;;;;;4958963;29;20489;-95
2023/07/01 18:42:40;;;;;;;2.07;1.30;;;25.10;81.00;;;;;;4959883;29;20445;-87
2023/07/01 18:45:07;;;;;;;1.70;1.30;;;25.10;81.00;;;;;;4965184;29;20444;-83
2023/07/01 18:47:36;;;;;;;1.40;1.20;;;25.10;81.10;;;;;;4956970;28;20473;-83
2023/07/01 18:50:02;;;;;;;1.30;1.00;;;25.10;81.00;;;;;;4950276;29;20534;-94
2023/07/01 18:52:29;;;;;;;1.67;1.30;;;25.10;80.90;;;;;;4940470;29;20442;-95
2023/07/01 18:54:56;;;;;;;5.93;1.40;;;25.10;81.30;;;;;;4939909;29;20442;-95
2023/07/01 18:57:23;;;;;;;2.90;1.70;;;25.00;81.40;;;;;;4940495;29;20474;-94
2023/07/01 18:59:49;;;;;;;2.50;1.70;;;25.00;81.50;;;;;;4939041;29;20498;-83
2023/07/01 19:02:17;;;;;;;3.70;1.43;;;25.00;81.80;;;;;;4939295;29;20474;-94
2023/07/01 19:04:45;;;;;;;1.73;1.30;;;25.00;81.80;;;;;;4939165;29;20507;-86
2023/07/01 19:07:12;;;;;;;1.70;1.60;;;25.00;81.80;;;;;;4939049;29;20446;-85
2023/07/01 19:09:39;;;;;;;3.17;2.00;;;25.00;81.80;;;;;;4939339;29;20465;-90
2023/07/01 19:12:06;;;;;;;2.70;1.27;;;25.00;81.80;;;;;;4938756;29;20443;-94
2023/07/01 19:14:34;;;;;;;2.33;1.50;;;25.00;81.70;;;;;;4939599;29;20446;-86
2023/07/01 19:17:01;;;;;;;1.87;1.67;;;25.00;81.70;;;;;;4960060;23;20485;-83
2023/07/01 19:19:27;;;;;;;1.90;1.50;;;25.10;81.70;;;;;;4977971;28;20448;-95
2023/07/01 19:21:56;;;;;;;3.33;1.70;;;25.00;81.70;;;;;;4978320;28;20448;-84
2023/07/01 19:24:23;;;;;;;1.50;1.40;;;25.00;81.70;;;;;;4977423;28;20451;-94
2023/07/01 19:26:50;;;;;;;4.43;1.90;;;24.90;81.60;;;;;;4977264;28;20449;-91
2023/07/01 19:29:19;;;;;;;2.47;2.13;;;24.90;81.60;;;;;;4976957;28;20503;-95
2023/07/01 19:31:46;;;;;;;3.43;1.83;;;24.90;81.70;;;;;;4976884;28;20441;-95
2023/07/01 19:34:12;;;;;;;1.80;1.50;;;24.90;81.80;;;;;;4976820;28;20526;-95
2023/07/01 19:36:43;;;;;;;7.63;2.03;;;25.00;81.80;;;;;;4977078;28;20446;-83
2023/07/01 19:39:12;;;;;;;3.37;1.90;;;25.00;82.00;;;;;;4978677;28;20808;-84
2023/07/01 19:41:39;;;;;;;3.10;1.63;;;24.90;82.00;;;;;;4976286;28;20487;-84
2023/07/01 19:44:06;;;;;;;1.93;1.53;;;24.90;81.90;;;;;;4976180;28;20553;-84
2023/07/01 19:46:33;;;;;;;2.63;2.10;;;24.90;81.90;;;;;;4976089;28;20448;-93
2023/07/01 19:49:00;;;;;;;3.93;2.40;;;24.90;82.50;;;;;;4976008;28;20454;-88
2023/07/01 19:51:27;;;;;;;3.80;2.50;;;25.00;84.10;;;;;;4976021;28;20456;-84
2023/07/01 19:53:54;;;;;;;4.17;2.40;;;24.90;85.10;;;;;;4976514;28;20458;-95
2023/07/01 19:56:22;;;;;;;4.70;2.27;;;24.90;86.10;;;;;;4976994;28;20439;-95
2023/07/01 19:58:49;;;;;;;2.63;2.40;;;24.90;86.30;;;;;;4976457;28;20441;-95
2023/07/01 20:01:16;;;;;;;3.10;2.17;;;24.90;86.40;;;;;;4976382;28;20489;-94
2023/07/01 20:03:42;;;;;;;3.40;2.03;;;24.80;87.00;;;;;;4975963;28;20985;-96
2023/07/01 20:06:09;;;;;;;6.03;2.57;;;24.80;87.30;;;;;;4976296;28;20452;-89
2023/07/01 20:08:36;;;;;;;2.50;2.30;;;24.80;87.70;;;;;;4976296;28;20450;-95
2023/07/01 20:11:03;;;;;;;3.93;1.80;;;24.80;88.00;;;;;;4976313;28;20547;-89
2023/07/01 20:13:31;;;;;;;3.90;2.63;;;24.80;88.20;;;;;;4976193;28;20459;-84
2023/07/01 20:15:58;;;;;;;3.00;2.13;;;24.80;88.50;;;;;;4976499;28;20460;-95
2023/07/01 20:18:25;;;;;;;2.20;2.00;;;24.80;88.70;;;;;;4976442;28;20477;-95
2023/07/01 20:20:53;;;;;;;6.73;2.63;;;24.70;88.40;;;;;;4976255;28;20489;-95
2023/07/01 20:23:19;;;;;;;2.43;2.07;;;24.80;88.10;;;;;;4975524;28;20791;-95
2023/07/01 20:25:46;;;;;;;3.77;2.47;;;24.80;88.00;;;;;;4976136;28;20433;-96
2023/07/01 20:28:14;;;;;;;3.20;2.40;;;24.70;88.00;;;;;;4976356;28;20813;-84
2023/07/01 20:30:42;;;;;;;2.53;1.90;;;24.70;87.90;;;;;;4976785;28;20466;-84
2023/07/01 20:33:09;;;;;;;2.10;2.00;;;24.70;88.20;;;;;;4975966;28;20476;-90
2023/07/01 20:35:35;;;;;;;3.70;2.00;;;24.70;88.10;;;;;;4982539;28;20451;-89
2023/07/01 20:38:03;;;;;;;3.30;2.33;;;24.70;88.40;;;;;;4988506;28;20420;-82
2023/07/01 20:40:31;;;;;;;5.77;1.50;;;24.70;87.80;;;;;;4980856;28;20584;-80
2023/07/01 20:43:00;;;;;;;6.07;1.63;;;24.70;86.20;;;;;;4963785;29;20443;-81
2023/07/01 20:45:27;;;;;;;1.90;1.20;;;24.70;84.90;;;;;;4965845;29;20482;-96
2023/07/01 20:47:56;;;;;;;2.50;1.17;;;24.70;84.20;;;;;;4965808;29;20476;-82
2023/07/01 20:50:22;;;;;;;3.00;1.20;;;24.70;83.80;;;;;;4966287;29;20453;-93
2023/07/01 20:52:51;;;;;;;5.00;1.27;;;24.70;83.60;;;;;;4963893;29;20446;-82
2023/07/01 20:55:20;;;;;;;1.83;1.20;;;24.70;83.30;;;;;;4963029;28;20436;-86
2023/07/01 20:57:49;;;;;;;1.40;1.13;;;24.70;83.10;;;;;;4961000;29;20449;-82
2023/07/01 21:00:17;;;;;;;1.70;1.20;;;24.80;83.00;;;;;;4968524;29;20455;-83
2023/07/01 21:02:45;;;;;;;1.20;1.10;;;24.80;83.00;;;;;;4963138;29;20458;-81
2023/07/01 21:05:17;;;;;;;1.93;1.37;;;24.80;82.90;;;;;;4962903;29;20963;-84
2023/07/01 21:07:44;;;;;;;1.20;1.00;;;24.80;82.80;;;;;;4962165;29;20530;-82
2023/07/01 21:10:14;;;;;;;2.70;1.13;;;24.80;82.70;;;;;;4960778;29;20456;-82
2023/07/01 21:12:40;;;;;;;1.30;1.13;;;24.80;82.60;;;;;;4965830;29;20521;-82
2023/07/01 21:15:11;;;;;;;2.23;1.13;;;24.80;82.50;;;;;;4965367;29;20446;-94
2023/07/01 21:17:46;;;;;;;1.57;1.20;;;24.80;82.40;;;;;;4966243;29;20489;-96
2023/07/01 21:20:14;;;;;;;1.23;0.90;;;24.80;82.40;;;;;;4967618;29;20516;-82
2023/07/01 21:22:41;;;;;;;2.43;1.10;;;24.80;82.40;;;;;;4966929;29;20514;-90
2023/07/01 21:25:10;;;;;;;2.50;1.20;;;24.80;82.30;;;;;;4968379;29;20438;-96
2023/07/01 21:28:01;;;;;;;1.57;1.23;;;24.80;82.30;;;;;;4967356;29;20424;-87
2023/07/01 21:30:34;;;;;;;1.30;1.00;;;24.80;82.30;;;;;;4967727;29;20456;-95
2023/07/01 21:33:01;;;;;;;1.30;1.10;;;24.80;82.30;;;;;;4968313;29;20964;-83
2023/07/01 21:35:31;;;;;;;1.17;1.07;;;24.80;82.20;;;;;;4966178;28;20461;-83
2023/07/01 21:37:59;;;;;;;1.50;1.10;;;24.80;82.10;;;;;;4970085;29;20450;-95
2023/07/01 21:40:28;;;;;;;1.27;1.17;;;24.80;82.20;;;;;;4969894;29;20478;-82
2023/07/01 21:42:58;;;;;;;1.40;1.10;;;24.80;82.10;;;;;;4971873;29;20445;-95
2023/07/01 21:45:30;;;;;;;1.77;1.20;;;24.80;82.10;;;;;;4971014;29;20844;-88
2023/07/01 21:47:57;;;;;;;1.40;1.03;;;24.80;82.00;;;;;;4977392;29;20438;-84
2023/07/01 21:50:46;;;;;;;1.30;1.13;;;24.80;82.00;;;;;;4975844;29;20431;-92
2023/07/01 21:53:13;;;;;;;1.43;1.27;;;24.80;82.10;;;;;;4971259;29;20435;-83
2023/07/01 21:55:41;;;;;;;1.30;1.20;;;24.80;82.00;;;;;;4976829;29;20532;-95
2023/07/01 21:58:21;;;;;;;1.20;1.03;;;24.80;82.00;;;;;;4973009;29;20449;-83
2023/07/01 22:00:48;;;;;;;1.27;1.00;;;24.80;81.90;;;;;;4976163;29;20483;-89
2023/07/01 22:03:16;;;;;;;1.67;1.10;;;24.80;81.90;;;;;;4971878;29;20572;-83
2023/07/01 22:05:44;;;;;;;1.43;1.10;;;24.80;81.90;;;;;;4969234;29;20456;-96
2023/07/01 22:08:11;;;;;;;1.50;1.30;;;24.80;81.90;;;;;;4968593;29;20884;-91
2023/07/01 22:10:38;;;;;;;1.87;1.00;;;24.80;81.80;;;;;;4967295;29;20450;-96
2023/07/01 22:13:04;;;;;;;1.20;1.00;;;24.80;81.80;;;;;;4969178;29;20455;-86
2023/07/01 22:15:31;;;;;;;1.43;1.33;;;24.80;81.80;;;;;;4966030;29;20481;-83
2023/07/01 22:17:58;;;;;;;1.30;1.20;;;24.80;81.70;;;;;;4964843;28;20484;-96
2023/07/01 22:20:25;;;;;;;1.10;1.00;;;24.80;81.80;;;;;;4967158;29;20444;-83
2023/07/01 22:22:53;;;;;;;2.20;1.17;;;24.80;81.80;;;;;;4965875;29;20453;-83
2023/07/01 22:25:19;;;;;;;1.53;1.23;;;24.80;81.60;;;;;;4965082;29;20454;-96
2023/07/01 22:27:46;;;;;;;3.70;1.23;;;24.80;81.70;;;;;;4965578;29;20447;-96
2023/07/01 22:30:13;;;;;;;1.37;1.20;;;24.80;81.60;;;;;;4964611;29;20980;-84
2023/07/01 22:32:40;;;;;;;1.17;1.07;;;24.80;81.70;;;;;;4964679;29;20576;-91
2023/07/01 22:35:07;;;;;;;1.60;1.40;;;24.80;81.70;;;;;;4967628;29;20445;-96
2023/07/01 22:37:34;;;;;;;1.10;1.00;;;24.80;81.50;;;;;;4966469;29;20440;-96
2023/07/01 22:40:02;;;;;;;1.40;1.30;;;24.80;81.60;;;;;;4967798;29;20438;-83
2023/07/01 22:42:29;;;;;;;1.40;1.10;;;24.80;81.60;;;;;;4970318;28;20499;-83
2023/07/01 22:44:56;;;;;;;1.40;0.90;;;24.80;81.50;;;;;;4970917;29;20450;-83
2023/07/01 22:47:22;;;;;;;1.70;1.10;;;24.80;81.50;;;;;;4972184;28;20817;-83
2023/07/01 22:49:49;;;;;;;1.10;1.00;;;24.80;81.50;;;;;;4971102;29;20460;-96
2023/07/01 22:54:46;;;;;;;1.10;1.00;;;24.80;81.50;;;;;;4965207;29;20474;-96
2023/07/01 22:57:14;;;;;;;1.50;1.00;;;24.80;81.40;;;;;;4964983;29;20449;-83
2023/07/01 22:59:41;;;;;;;1.00;0.90;;;24.80;81.50;;;;;;4962795;29;20467;-83
2023/07/01 23:02:07;;;;;;;1.67;1.20;;;24.80;81.40;;;;;;4963486;29;20505;-95
2023/07/01 23:04:34;;;;;;;1.30;0.90;;;25.00;81.70;;;;;;4966914;29;20446;-93
2023/07/01 23:07:01;;;;;;;1.80;1.10;;;24.80;81.50;;;;;;4969797;28;20658;-82
2023/07/01 23:09:28;;;;;;;1.13;1.03;;;24.80;81.40;;;;;;4970978;29;20788;-84
2023/07/01 23:11:55;;;;;;;1.10;1.00;;;24.80;81.50;;;;;;4969295;28;20451;-82
2023/07/01 23:14:23;;;;;;;1.63;1.00;;;24.80;81.40;;;;;;4968336;29;20965;-83
2023/07/01 23:16:49;;;;;;;1.10;0.90;;;24.80;81.40;;;;;;4965775;29;20549;-91
2023/07/01 23:19:16;;;;;;;1.50;1.13;;;24.70;81.30;;;;;;4970744;29;20426;-83
2023/07/01 23:21:43;;;;;;;1.40;1.03;;;24.80;81.40;;;;;;4968169;29;20488;-93
2023/07/01 23:24:10;;;;;;;1.90;1.10;;;24.70;81.30;;;;;;4967781;29;20942;-86
2023/07/01 23:26:37;;;;;;;1.30;1.20;;;24.80;81.40;;;;;;4965567;29;20451;-96
2023/07/01 23:29:04;;;;;;;1.40;1.10;;;24.80;81.40;;;;;;4969364;29;20497;-96
2023/07/01 23:31:32;;;;;;;1.20;1.00;;;24.80;81.40;;;;;;4971429;29;20469;-95
2023/07/01 23:33:59;;;;;;;1.20;0.90;;;24.80;81.40;;;;;;4966086;29;20451;-96
2023/07/01 23:36:26;;;;;;;1.27;1.00;;;24.80;81.40;;;;;;4965518;29;20426;-82
2023/07/01 23:38:52;;;;;;;2.23;1.10;;;24.80;81.40;;;;;;4965394;29;20442;-96
2023/07/01 23:41:19;;;;;;;1.20;0.97;;;24.80;81.30;;;;;;4965229;29;21004;-96
2023/07/01 23:43:46;;;;;;;2.00;1.07;;;24.80;81.30;;;;;;4965520;29;20437;-96
2023/07/01 23:46:13;;;;;;;1.20;1.10;;;24.80;81.30;;;;;;4966274;29;20441;-89
2023/07/01 23:48:41;;;;;;;1.17;1.00;;;24.80;81.40;;;;;;4967117;29;20444;-85
2023/07/01 23:51:07;;;;;;;1.30;1.00;;;24.80;81.30;;;;;;4970684;29;20430;-83